WMT1WD ENTO-LROP
Flight info
| Callsign | WMT1WD |
|---|---|
| Flight time | 2h 23m |
| Altitude | 37000 |
| Route | BOMGU Y440 SABAK DCT GORPI DCT ROGAL DCT KENIN DCT DENAK |
| Aircraft | A321/M-SDE1E2E3FGIJ1J4RWXY/LB1 |
Departure
| Time | 2026-04-30 18:32 |
|---|---|
| Airport | Sandefjord Airport, Torp (ENTO) |
Arrival
| Time | 2026-04-30 20:55 |
|---|---|
| Airport | Bucharest Henri Coandă International Airport (LROP) |
| Time | Latitude | Longitude | Altitude | Speed | Heading |
|---|---|---|---|---|---|
| 2026-04-30 18:32 | 59.03837 | 10.61277 | 11138 ft | 327 kts | 160° |
| 2026-04-30 18:32 | 59.01684 | 10.62980 | 11598 ft | 339 kts | 160° |
| 2026-04-30 18:32 | 58.97247 | 10.66503 | 13015 ft | 349 kts | 159° |
| 2026-04-30 18:33 | 58.94996 | 10.68308 | 13746 ft | 353 kts | 159° |
| 2026-04-30 18:33 | 58.90448 | 10.72155 | 15075 ft | 362 kts | 152° |
| 2026-04-30 18:33 | 58.88351 | 10.74791 | 15702 ft | 367 kts | 147° |
| 2026-04-30 18:34 | 58.86197 | 10.77606 | 16346 ft | 371 kts | 147° |
| 2026-04-30 18:34 | 58.81864 | 10.83237 | 17665 ft | 379 kts | 146° |
| 2026-04-30 18:34 | 58.79692 | 10.86044 | 18323 ft | 383 kts | 146° |
| 2026-04-30 18:35 | 58.77465 | 10.88908 | 18935 ft | 387 kts | 146° |
| 2026-04-30 18:35 | 58.75214 | 10.91800 | 19526 ft | 391 kts | 146° |
| 2026-04-30 18:35 | 58.72943 | 10.94714 | 20089 ft | 394 kts | 146° |
| 2026-04-30 18:36 | 58.68330 | 11.00613 | 21261 ft | 402 kts | 146° |
| 2026-04-30 18:36 | 58.65992 | 11.03595 | 21839 ft | 405 kts | 146° |
| 2026-04-30 18:36 | 58.61254 | 11.09638 | 23013 ft | 413 kts | 146° |
| 2026-04-30 18:37 | 58.58860 | 11.12692 | 23589 ft | 416 kts | 146° |
| 2026-04-30 18:37 | 58.56433 | 11.15760 | 24105 ft | 420 kts | 148° |
| 2026-04-30 18:37 | 58.53828 | 11.18349 | 24565 ft | 424 kts | 154° |
| 2026-04-30 18:37 | 58.51138 | 11.20709 | 25036 ft | 427 kts | 155° |
| 2026-04-30 18:38 | 58.48424 | 11.23057 | 25497 ft | 430 kts | 155° |
| 2026-04-30 18:38 | 58.45688 | 11.25414 | 25954 ft | 433 kts | 155° |
| 2026-04-30 18:38 | 58.42934 | 11.27778 | 26416 ft | 436 kts | 155° |
| 2026-04-30 18:38 | 58.40150 | 11.30131 | 26829 ft | 440 kts | 155° |
| 2026-04-30 18:39 | 58.37343 | 11.32489 | 27264 ft | 443 kts | 155° |
| 2026-04-30 18:39 | 58.34514 | 11.34860 | 27698 ft | 446 kts | 155° |
| 2026-04-30 18:39 | 58.31666 | 11.37242 | 28124 ft | 449 kts | 155° |
| 2026-04-30 18:39 | 58.28795 | 11.39638 | 28559 ft | 452 kts | 155° |
| 2026-04-30 18:40 | 58.25909 | 11.42041 | 28974 ft | 454 kts | 155° |
| 2026-04-30 18:40 | 58.23006 | 11.44453 | 29406 ft | 457 kts | 155° |
| 2026-04-30 18:40 | 58.20083 | 11.46875 | 29820 ft | 460 kts | 155° |
| 2026-04-30 18:40 | 58.17144 | 11.49325 | 30227 ft | 462 kts | 153° |
| 2026-04-30 18:41 | 58.14410 | 11.52508 | 30576 ft | 463 kts | 141° |
| 2026-04-30 18:41 | 58.11821 | 11.56152 | 30897 ft | 465 kts | 141° |
| 2026-04-30 18:41 | 58.09227 | 11.59833 | 31237 ft | 467 kts | 141° |
| 2026-04-30 18:41 | 58.06627 | 11.63538 | 31585 ft | 469 kts | 141° |
| 2026-04-30 18:42 | 58.04014 | 11.67261 | 31941 ft | 472 kts | 141° |
| 2026-04-30 18:42 | 57.98755 | 11.74721 | 32733 ft | 473 kts | 141° |
| 2026-04-30 18:42 | 57.96122 | 11.78429 | 33228 ft | 472 kts | 141° |
| 2026-04-30 18:45 | 57.70162 | 12.14590 | 37272 ft | 460 kts | 142° |
| 2026-04-30 18:45 | 57.67588 | 12.18145 | 37393 ft | 459 kts | 142° |
| 2026-04-30 18:46 | 57.62452 | 12.25214 | 37411 ft | 459 kts | 142° |
| 2026-04-30 18:46 | 57.57309 | 12.32259 | 37404 ft | 458 kts | 143° |
| 2026-04-30 18:47 | 57.52164 | 12.39263 | 37414 ft | 458 kts | 143° |
| 2026-04-30 18:47 | 57.47027 | 12.46255 | 37407 ft | 458 kts | 143° |
| 2026-04-30 18:48 | 57.41923 | 12.53187 | 37412 ft | 458 kts | 143° |
| 2026-04-30 18:48 | 57.36775 | 12.60157 | 37435 ft | 458 kts | 143° |
| 2026-04-30 18:49 | 57.31621 | 12.67117 | 37447 ft | 459 kts | 143° |
| 2026-04-30 18:49 | 57.26452 | 12.74046 | 37434 ft | 459 kts | 143° |
| 2026-04-30 18:50 | 57.21274 | 12.80954 | 37440 ft | 459 kts | 143° |
| 2026-04-30 18:50 | 57.16106 | 12.87834 | 37441 ft | 459 kts | 143° |
| 2026-04-30 18:51 | 57.10927 | 12.94726 | 37434 ft | 459 kts | 143° |
| 2026-04-30 18:51 | 57.05747 | 13.01581 | 37438 ft | 459 kts | 143° |
| 2026-04-30 18:52 | 57.00562 | 13.08433 | 37437 ft | 459 kts | 143° |
| 2026-04-30 18:52 | 56.95365 | 13.15252 | 37431 ft | 459 kts | 143° |
| 2026-04-30 18:53 | 56.90160 | 13.22051 | 37438 ft | 460 kts | 143° |
| 2026-04-30 18:53 | 56.84957 | 13.28851 | 37436 ft | 460 kts | 143° |
| 2026-04-30 18:54 | 56.79742 | 13.35628 | 37428 ft | 460 kts | 143° |
| 2026-04-30 18:54 | 56.74527 | 13.42387 | 37433 ft | 460 kts | 143° |
| 2026-04-30 18:55 | 56.69375 | 13.49046 | 37438 ft | 460 kts | 143° |
| 2026-04-30 18:55 | 56.61531 | 13.59125 | 37429 ft | 461 kts | 143° |
| 2026-04-30 18:56 | 56.53665 | 13.69195 | 37428 ft | 462 kts | 143° |
| 2026-04-30 18:57 | 56.45769 | 13.79224 | 37424 ft | 462 kts | 143° |
| 2026-04-30 18:57 | 56.40542 | 13.85858 | 37424 ft | 462 kts | 143° |
| 2026-04-30 18:58 | 56.32603 | 13.95875 | 37428 ft | 463 kts | 143° |
| 2026-04-30 18:59 | 56.24705 | 14.05772 | 37421 ft | 463 kts | 143° |
| 2026-04-30 19:00 | 56.14114 | 14.18976 | 37406 ft | 464 kts | 143° |
| 2026-04-30 19:01 | 56.03472 | 14.32173 | 37404 ft | 464 kts | 143° |
| 2026-04-30 19:02 | 55.95530 | 14.41956 | 37398 ft | 465 kts | 143° |
| 2026-04-30 19:03 | 55.84881 | 14.54999 | 37401 ft | 465 kts | 143° |
| 2026-04-30 19:04 | 55.74210 | 14.67982 | 37395 ft | 465 kts | 143° |
| 2026-04-30 19:05 | 55.64382 | 14.79846 | 37393 ft | 465 kts | 143° |
| 2026-04-30 19:06 | 55.53701 | 14.92672 | 37387 ft | 466 kts | 143° |
| 2026-04-30 19:06 | 55.45635 | 15.02307 | 37396 ft | 466 kts | 143° |
| 2026-04-30 19:07 | 55.37609 | 15.11835 | 37418 ft | 466 kts | 143° |
| 2026-04-30 19:08 | 55.26851 | 15.24538 | 37396 ft | 466 kts | 142° |
| 2026-04-30 19:09 | 55.18773 | 15.34002 | 37393 ft | 466 kts | 143° |
| 2026-04-30 19:09 | 55.13390 | 15.40300 | 37394 ft | 466 kts | 143° |
| 2026-04-30 19:10 | 55.02608 | 15.52842 | 37393 ft | 465 kts | 142° |
| 2026-04-30 19:11 | 54.94525 | 15.62191 | 37385 ft | 466 kts | 142° |
| 2026-04-30 19:12 | 54.89097 | 15.68368 | 37391 ft | 467 kts | 143° |
| 2026-04-30 19:12 | 54.83588 | 15.74349 | 37396 ft | 468 kts | 144° |
| 2026-04-30 19:13 | 54.72506 | 15.86172 | 37396 ft | 468 kts | 144° |
| 2026-04-30 19:14 | 54.66978 | 15.92098 | 37403 ft | 468 kts | 144° |
| 2026-04-30 19:14 | 54.61439 | 15.98007 | 37413 ft | 468 kts | 144° |
| 2026-04-30 19:15 | 54.55902 | 16.03899 | 37411 ft | 468 kts | 144° |
| 2026-04-30 19:15 | 54.47595 | 16.12732 | 37420 ft | 468 kts | 144° |
| 2026-04-30 19:16 | 54.42054 | 16.18590 | 37422 ft | 468 kts | 144° |
| 2026-04-30 19:17 | 54.33732 | 16.27339 | 37408 ft | 467 kts | 143° |
| 2026-04-30 19:17 | 54.25408 | 16.36047 | 37412 ft | 468 kts | 143° |
| 2026-04-30 19:18 | 54.17069 | 16.44743 | 37413 ft | 468 kts | 143° |
| 2026-04-30 19:19 | 54.11504 | 16.50525 | 37424 ft | 468 kts | 143° |
| 2026-04-30 19:19 | 54.03149 | 16.59158 | 37453 ft | 469 kts | 142° |
| 2026-04-30 19:20 | 53.97604 | 16.64872 | 37439 ft | 468 kts | 142° |
| 2026-04-30 19:21 | 53.89267 | 16.73413 | 37429 ft | 468 kts | 143° |
| 2026-04-30 19:22 | 53.78138 | 16.84768 | 37427 ft | 467 kts | 143° |
| 2026-04-30 19:23 | 53.61708 | 17.01390 | 37406 ft | 466 kts | 142° |
| 2026-04-30 19:24 | 53.53433 | 17.09722 | 37407 ft | 467 kts | 142° |
| 2026-04-30 19:25 | 53.39454 | 17.23694 | 37450 ft | 467 kts | 142° |
| 2026-04-30 19:26 | 53.28312 | 17.34733 | 37394 ft | 467 kts | 142° |
| 2026-04-30 19:27 | 53.19933 | 17.42992 | 37409 ft | 467 kts | 142° |
| 2026-04-30 19:28 | 53.11517 | 17.51273 | 37413 ft | 467 kts | 142° |
| 2026-04-30 19:29 | 53.00330 | 17.62206 | 37409 ft | 466 kts | 142° |
| 2026-04-30 19:30 | 52.89142 | 17.73071 | 37405 ft | 467 kts | 142° |
| 2026-04-30 19:31 | 52.77896 | 17.83906 | 37401 ft | 467 kts | 142° |
| 2026-04-30 19:31 | 52.69527 | 17.91963 | 37385 ft | 466 kts | 142° |
| 2026-04-30 19:32 | 52.63910 | 17.97349 | 37377 ft | 466 kts | 142° |
| 2026-04-30 19:32 | 52.58298 | 18.02711 | 37389 ft | 467 kts | 142° |
| 2026-04-30 19:33 | 52.52660 | 18.08062 | 37391 ft | 467 kts | 142° |
| 2026-04-30 19:33 | 52.47033 | 18.13372 | 37395 ft | 468 kts | 142° |
| 2026-04-30 19:34 | 52.41399 | 18.18689 | 37431 ft | 468 kts | 142° |
| 2026-04-30 19:35 | 52.32927 | 18.26676 | 37410 ft | 468 kts | 142° |
| 2026-04-30 19:35 | 52.27298 | 18.31963 | 37410 ft | 468 kts | 142° |
| 2026-04-30 19:36 | 52.21644 | 18.37251 | 37405 ft | 468 kts | 142° |
| 2026-04-30 19:36 | 52.13179 | 18.45156 | 37402 ft | 468 kts | 142° |
| 2026-04-30 19:37 | 52.07493 | 18.50429 | 37394 ft | 468 kts | 142° |
| 2026-04-30 19:37 | 52.01848 | 18.55650 | 37384 ft | 468 kts | 142° |
| 2026-04-30 19:38 | 51.96198 | 18.60877 | 37386 ft | 468 kts | 142° |
| 2026-04-30 19:38 | 51.90533 | 18.66087 | 37391 ft | 469 kts | 142° |
| 2026-04-30 19:39 | 51.84837 | 18.71306 | 37391 ft | 469 kts | 142° |
| 2026-04-30 19:39 | 51.79167 | 18.76493 | 37395 ft | 469 kts | 143° |
| 2026-04-30 19:40 | 51.73498 | 18.81662 | 37423 ft | 470 kts | 142° |
| 2026-04-30 19:40 | 51.67811 | 18.86833 | 37415 ft | 470 kts | 142° |
| 2026-04-30 19:41 | 51.62086 | 18.92039 | 37406 ft | 470 kts | 142° |
| 2026-04-30 19:41 | 51.56395 | 18.97199 | 37403 ft | 470 kts | 143° |
| 2026-04-30 19:42 | 51.50688 | 19.02332 | 37404 ft | 470 kts | 143° |
| 2026-04-30 19:42 | 51.44998 | 19.07440 | 37404 ft | 470 kts | 143° |
| 2026-04-30 19:43 | 51.39267 | 19.12583 | 37401 ft | 470 kts | 143° |
| 2026-04-30 19:44 | 51.30712 | 19.20228 | 37401 ft | 470 kts | 143° |
| 2026-04-30 19:44 | 51.24983 | 19.25327 | 37402 ft | 470 kts | 143° |
| 2026-04-30 19:45 | 51.19282 | 19.30386 | 37399 ft | 470 kts | 143° |
| 2026-04-30 19:45 | 51.13554 | 19.35455 | 37395 ft | 470 kts | 143° |
| 2026-04-30 19:46 | 51.07883 | 19.40461 | 37378 ft | 467 kts | 143° |
| 2026-04-30 19:46 | 51.02193 | 19.45471 | 37380 ft | 468 kts | 143° |
| 2026-04-30 19:47 | 50.96495 | 19.50530 | 37383 ft | 467 kts | 142° |
| 2026-04-30 19:47 | 50.90991 | 19.55920 | 37387 ft | 464 kts | 139° |
| 2026-04-30 19:48 | 50.85566 | 19.61473 | 37398 ft | 464 kts | 139° |
| 2026-04-30 19:48 | 50.81038 | 19.66022 | 37424 ft | 465 kts | 141° |
| 2026-04-30 19:49 | 50.75547 | 19.71411 | 37412 ft | 466 kts | 141° |
| 2026-04-30 19:49 | 50.67241 | 19.79488 | 37401 ft | 466 kts | 141° |
| 2026-04-30 19:50 | 50.61746 | 19.84835 | 37399 ft | 466 kts | 141° |
| 2026-04-30 19:50 | 50.56246 | 19.90195 | 37401 ft | 465 kts | 141° |
| 2026-04-30 19:51 | 50.50722 | 19.95551 | 37401 ft | 466 kts | 142° |
| 2026-04-30 19:51 | 50.45209 | 20.00877 | 37395 ft | 466 kts | 142° |
| 2026-04-30 19:52 | 50.39683 | 20.06204 | 37385 ft | 467 kts | 142° |
| 2026-04-30 19:52 | 50.34127 | 20.11539 | 37385 ft | 467 kts | 142° |
| 2026-04-30 19:53 | 50.28610 | 20.16826 | 37385 ft | 467 kts | 142° |
| 2026-04-30 19:53 | 50.23050 | 20.22141 | 37409 ft | 467 kts | 142° |
| 2026-04-30 19:54 | 50.17504 | 20.27426 | 37396 ft | 467 kts | 142° |
| 2026-04-30 19:54 | 50.11959 | 20.32696 | 37392 ft | 468 kts | 143° |
| 2026-04-30 19:55 | 50.06399 | 20.37968 | 37392 ft | 468 kts | 143° |
| 2026-04-30 19:55 | 50.00850 | 20.43208 | 37389 ft | 468 kts | 143° |
| 2026-04-30 19:56 | 49.95270 | 20.48470 | 37412 ft | 468 kts | 143° |
| 2026-04-30 19:56 | 49.89715 | 20.53701 | 37401 ft | 468 kts | 143° |
| 2026-04-30 19:57 | 49.84150 | 20.58933 | 37400 ft | 468 kts | 143° |
| 2026-04-30 19:57 | 49.78583 | 20.64138 | 37394 ft | 468 kts | 143° |
| 2026-04-30 19:58 | 49.73000 | 20.69338 | 37395 ft | 468 kts | 143° |
| 2026-04-30 19:58 | 49.67405 | 20.74545 | 37412 ft | 468 kts | 144° |
| 2026-04-30 19:59 | 49.61840 | 20.79708 | 37406 ft | 468 kts | 144° |
| 2026-04-30 20:00 | 49.53459 | 20.87458 | 37399 ft | 468 kts | 144° |
| 2026-04-30 20:00 | 49.47872 | 20.92605 | 37393 ft | 468 kts | 144° |
| 2026-04-30 20:01 | 49.39489 | 21.00304 | 37413 ft | 469 kts | 144° |
| 2026-04-30 20:01 | 49.33906 | 21.05408 | 37407 ft | 469 kts | 145° |
| 2026-04-30 20:02 | 49.25500 | 21.13068 | 37396 ft | 469 kts | 145° |
| 2026-04-30 20:03 | 49.17094 | 21.20712 | 37389 ft | 469 kts | 145° |
| 2026-04-30 20:03 | 49.11499 | 21.25776 | 37407 ft | 469 kts | 145° |
| 2026-04-30 20:04 | 49.05882 | 21.30843 | 37394 ft | 469 kts | 145° |
| 2026-04-30 20:05 | 48.97532 | 21.38550 | 37384 ft | 464 kts | 136° |
| 2026-04-30 20:05 | 48.90434 | 21.48396 | 37373 ft | 460 kts | 133° |
| 2026-04-30 20:06 | 48.85741 | 21.55007 | 37388 ft | 461 kts | 133° |
| 2026-04-30 20:06 | 48.80998 | 21.61633 | 37374 ft | 462 kts | 133° |
| 2026-04-30 20:07 | 48.76388 | 21.68358 | 37372 ft | 461 kts | 131° |
| 2026-04-30 20:08 | 48.69427 | 21.78419 | 37366 ft | 462 kts | 133° |
| 2026-04-30 20:08 | 48.64673 | 21.84955 | 37368 ft | 462 kts | 134° |
| 2026-04-30 20:09 | 48.59916 | 21.91456 | 37361 ft | 462 kts | 134° |
| 2026-04-30 20:09 | 48.52763 | 22.01298 | 37372 ft | 462 kts | 133° |
| 2026-04-30 20:10 | 48.45662 | 22.11070 | 37388 ft | 462 kts | 134° |
| 2026-04-30 20:11 | 48.38520 | 22.20826 | 37362 ft | 463 kts | 134° |
| 2026-04-30 20:11 | 48.33723 | 22.27352 | 37364 ft | 463 kts | 134° |
| 2026-04-30 20:12 | 48.26570 | 22.37044 | 37360 ft | 463 kts | 134° |
| 2026-04-30 20:13 | 48.21770 | 22.43550 | 37377 ft | 463 kts | 135° |
| 2026-04-30 20:13 | 48.16986 | 22.50012 | 37357 ft | 463 kts | 135° |
| 2026-04-30 20:14 | 48.12198 | 22.56449 | 37360 ft | 464 kts | 135° |
| 2026-04-30 20:14 | 48.07403 | 22.62876 | 37360 ft | 464 kts | 135° |
| 2026-04-30 20:15 | 48.02572 | 22.69339 | 37376 ft | 464 kts | 135° |
| 2026-04-30 20:15 | 47.97781 | 22.75731 | 37368 ft | 464 kts | 135° |
| 2026-04-30 20:16 | 47.92961 | 22.82141 | 37364 ft | 465 kts | 135° |
| 2026-04-30 20:16 | 47.88124 | 22.88567 | 37360 ft | 465 kts | 135° |
| 2026-04-30 20:17 | 47.83324 | 22.94928 | 37348 ft | 465 kts | 136° |
| 2026-04-30 20:17 | 47.78457 | 23.01351 | 37347 ft | 465 kts | 136° |
| 2026-04-30 20:18 | 47.73634 | 23.07701 | 37344 ft | 466 kts | 136° |
| 2026-04-30 20:18 | 47.68465 | 23.13403 | 37341 ft | 468 kts | 146° |
| 2026-04-30 20:19 | 47.62904 | 23.18516 | 37347 ft | 469 kts | 146° |
| 2026-04-30 20:19 | 47.57367 | 23.23562 | 37358 ft | 469 kts | 147° |
| 2026-04-30 20:20 | 47.51800 | 23.28621 | 37342 ft | 469 kts | 147° |
| 2026-04-30 20:20 | 47.46215 | 23.33706 | 37343 ft | 470 kts | 147° |
| 2026-04-30 20:21 | 47.40676 | 23.38747 | 37343 ft | 470 kts | 147° |
| 2026-04-30 20:21 | 47.35084 | 23.43813 | 37342 ft | 470 kts | 147° |
| 2026-04-30 20:22 | 47.29519 | 23.48833 | 37354 ft | 470 kts | 147° |
| 2026-04-30 20:22 | 47.23931 | 23.53868 | 37343 ft | 471 kts | 147° |
| 2026-04-30 20:23 | 47.18347 | 23.58892 | 37348 ft | 471 kts | 147° |
| 2026-04-30 20:23 | 47.12763 | 23.63896 | 37351 ft | 471 kts | 147° |
| 2026-04-30 20:24 | 47.07131 | 23.68929 | 37362 ft | 472 kts | 148° |
| 2026-04-30 20:24 | 47.01533 | 23.73917 | 37352 ft | 472 kts | 148° |
| 2026-04-30 20:25 | 46.93118 | 23.81406 | 37341 ft | 472 kts | 148° |
| 2026-04-30 20:26 | 46.84682 | 23.88878 | 37341 ft | 473 kts | 148° |
| 2026-04-30 20:26 | 46.76270 | 23.96303 | 37356 ft | 473 kts | 148° |
| 2026-04-30 20:27 | 46.65030 | 24.06189 | 37354 ft | 473 kts | 149° |
| 2026-04-30 20:28 | 46.53754 | 24.16052 | 37372 ft | 474 kts | 149° |
| 2026-04-30 20:30 | 46.39602 | 24.28343 | 37360 ft | 474 kts | 149° |
| 2026-04-30 20:30 | 46.31143 | 24.35668 | 36934 ft | 473 kts | 149° |
| 2026-04-30 20:31 | 46.22670 | 24.42984 | 36196 ft | 473 kts | 149° |
| 2026-04-30 20:32 | 46.14176 | 24.50291 | 35452 ft | 474 kts | 149° |
| 2026-04-30 20:32 | 46.08494 | 24.55153 | 34346 ft | 475 kts | 149° |
| 2026-04-30 20:33 | 46.05636 | 24.57591 | 33750 ft | 473 kts | 149° |
| 2026-04-30 20:33 | 46.00026 | 24.62372 | 32687 ft | 467 kts | 149° |
| 2026-04-30 20:33 | 45.97222 | 24.64761 | 32163 ft | 464 kts | 149° |
| 2026-04-30 20:34 | 45.91711 | 24.69444 | 31108 ft | 459 kts | 148° |
| 2026-04-30 20:34 | 45.86262 | 24.74068 | 30015 ft | 453 kts | 148° |
| 2026-04-30 20:35 | 45.83563 | 24.76355 | 29540 ft | 447 kts | 148° |
| 2026-04-30 20:35 | 45.80890 | 24.78615 | 29017 ft | 442 kts | 148° |
| 2026-04-30 20:35 | 45.75649 | 24.83035 | 28076 ft | 432 kts | 148° |
| 2026-04-30 20:36 | 45.73935 | 24.84480 | 27767 ft | 429 kts | 148° |
| 2026-04-30 20:36 | 45.70530 | 24.87353 | 27159 ft | 424 kts | 148° |
| 2026-04-30 20:36 | 45.65500 | 24.91596 | 26303 ft | 417 kts | 147° |
| 2026-04-30 20:37 | 45.63825 | 24.93004 | 25991 ft | 416 kts | 147° |
| 2026-04-30 20:37 | 45.60515 | 24.95777 | 25424 ft | 413 kts | 147° |
| 2026-04-30 20:37 | 45.58043 | 24.97844 | 24978 ft | 413 kts | 148° |
| 2026-04-30 20:37 | 45.56393 | 24.99223 | 24656 ft | 412 kts | 148° |
| 2026-04-30 20:38 | 45.53108 | 25.01969 | 24059 ft | 410 kts | 147° |
| 2026-04-30 20:38 | 45.51440 | 25.03364 | 23704 ft | 410 kts | 147° |
| 2026-04-30 20:38 | 45.49000 | 25.05406 | 23223 ft | 407 kts | 147° |
| 2026-04-30 20:39 | 45.44152 | 25.09452 | 22271 ft | 400 kts | 147° |
| 2026-04-30 20:39 | 45.41776 | 25.11434 | 21796 ft | 397 kts | 147° |
| 2026-04-30 20:39 | 45.39414 | 25.13400 | 21312 ft | 394 kts | 147° |
| 2026-04-30 20:40 | 45.34700 | 25.17309 | 20388 ft | 387 kts | 148° |
| 2026-04-30 20:40 | 45.32394 | 25.19219 | 19900 ft | 385 kts | 148° |
| 2026-04-30 20:40 | 45.30104 | 25.21114 | 19434 ft | 381 kts | 148° |
| 2026-04-30 20:41 | 45.25551 | 25.24869 | 18476 ft | 375 kts | 148° |
| 2026-04-30 20:41 | 45.23298 | 25.26728 | 17991 ft | 370 kts | 148° |
| 2026-04-30 20:41 | 45.21107 | 25.28537 | 17549 ft | 366 kts | 148° |
| 2026-04-30 20:41 | 45.18909 | 25.30349 | 17090 ft | 361 kts | 148° |
| 2026-04-30 20:42 | 45.16768 | 25.32114 | 16640 ft | 356 kts | 148° |
| 2026-04-30 20:42 | 45.14630 | 25.33878 | 16203 ft | 351 kts | 148° |
| 2026-04-30 20:42 | 45.10460 | 25.37305 | 15353 ft | 343 kts | 149° |
| 2026-04-30 20:43 | 45.08395 | 25.38996 | 14912 ft | 340 kts | 149° |
| 2026-04-30 20:43 | 45.06378 | 25.40651 | 14492 ft | 336 kts | 149° |
| 2026-04-30 20:43 | 45.04357 | 25.42311 | 14065 ft | 333 kts | 149° |
| 2026-04-30 20:44 | 45.00402 | 25.45551 | 13224 ft | 324 kts | 149° |
| 2026-04-30 20:44 | 44.98478 | 25.47122 | 12824 ft | 320 kts | 149° |
| 2026-04-30 20:44 | 44.94655 | 25.50240 | 12036 ft | 314 kts | 149° |
| 2026-04-30 20:45 | 44.90904 | 25.53296 | 11257 ft | 309 kts | 148° |
| 2026-04-30 20:45 | 44.89051 | 25.54806 | 10878 ft | 307 kts | 148° |
| 2026-04-30 20:45 | 44.87233 | 25.56287 | 10506 ft | 305 kts | 148° |
| 2026-04-30 20:46 | 44.81845 | 25.60670 | 9567 ft | 298 kts | 148° |
| 2026-04-30 20:46 | 44.80061 | 25.62117 | 9123 ft | 297 kts | 148° |
| 2026-04-30 20:47 | 44.76519 | 25.64990 | 8420 ft | 291 kts | 147° |
| 2026-04-30 20:47 | 44.74774 | 25.66404 | 8044 ft | 287 kts | 147° |
| 2026-04-30 20:48 | 44.71346 | 25.69170 | 6936 ft | 281 kts | 147° |
| 2026-04-30 20:48 | 44.69662 | 25.70529 | 6372 ft | 277 kts | 146° |
| 2026-04-30 20:48 | 44.67996 | 25.71875 | 5807 ft | 274 kts | 146° |
| 2026-04-30 20:48 | 44.66354 | 25.73198 | 5245 ft | 271 kts | 146° |
| 2026-04-30 20:49 | 44.64723 | 25.74514 | 4806 ft | 269 kts | 146° |
| 2026-04-30 20:49 | 44.63097 | 25.75828 | 4379 ft | 270 kts | 146° |
| 2026-04-30 20:49 | 44.61507 | 25.77107 | 4258 ft | 258 kts | 146° |
| 2026-04-30 20:50 | 44.58519 | 25.79497 | 4052 ft | 235 kts | 145° |
| 2026-04-30 20:50 | 44.57142 | 25.80600 | 3960 ft | 220 kts | 145° |
| 2026-04-30 20:50 | 44.55866 | 25.81679 | 3760 ft | 207 kts | 136° |
| 2026-04-30 20:50 | 44.55001 | 25.83185 | 3530 ft | 195 kts | 110° |
| 2026-04-30 20:51 | 44.54721 | 25.85002 | 3305 ft | 189 kts | 85° |
| 2026-04-30 20:51 | 44.54993 | 25.88632 | 2855 ft | 183 kts | 81° |
| 2026-04-30 20:51 | 44.55131 | 25.90380 | 2628 ft | 177 kts | 81° |
| 2026-04-30 20:52 | 44.55262 | 25.92058 | 2421 ft | 171 kts | 82° |
| 2026-04-30 20:52 | 44.55388 | 25.93681 | 2193 ft | 164 kts | 82° |
| 2026-04-30 20:52 | 44.55624 | 25.96730 | 1794 ft | 155 kts | 82° |
| 2026-04-30 20:53 | 44.55737 | 25.98197 | 1625 ft | 143 kts | 82° |
| 2026-04-30 20:53 | 44.55841 | 25.99543 | 1430 ft | 136 kts | 82° |
| 2026-04-30 20:53 | 44.55942 | 26.00848 | 1250 ft | 134 kts | 83° |
| 2026-04-30 20:54 | 44.56143 | 26.03464 | 900 ft | 136 kts | 83° |
| 2026-04-30 20:54 | 44.56245 | 26.04790 | 727 ft | 138 kts | 84° |
| 2026-04-30 20:54 | 44.56347 | 26.06127 | 569 ft | 138 kts | 84° |
| 2026-04-30 20:55 | 44.56544 | 26.08751 | 322 ft | 119 kts | 83° |
| 2026-04-30 20:55 | 44.56614 | 26.09661 | 322 ft | 69 kts | 84° |
| 2026-04-30 20:55 | 44.56651 | 26.10140 | 323 ft | 40 kts | 84° |
| 2026-04-30 20:56 | 44.56691 | 26.10682 | 322 ft | 9 kts | 83° |
| 2026-04-30 20:56 | 44.56721 | 26.10761 | 323 ft | 10 kts | 26° |
| 2026-04-30 20:56 | 44.56901 | 26.10745 | 322 ft | 13 kts | 354° |
| 2026-04-30 20:57 | 44.56975 | 26.10726 | 323 ft | 10 kts | 338° |
| 2026-04-30 20:57 | 44.57014 | 26.10681 | 323 ft | 8 kts | 309° |
| 2026-04-30 20:57 | 44.57048 | 26.10605 | 322 ft | 10 kts | 301° |
| 2026-04-30 20:58 | 44.57056 | 26.10361 | 323 ft | 15 kts | 264° |
| 2026-04-30 20:58 | 44.57044 | 26.10201 | 323 ft | 18 kts | 264° |
| 2026-04-30 20:58 | 44.57030 | 26.10017 | 323 ft | 20 kts | 264° |
| 2026-04-30 20:58 | 44.57014 | 26.09820 | 323 ft | 17 kts | 264° |
| 2026-04-30 20:59 | 44.56995 | 26.09574 | 323 ft | 14 kts | 263° |
| 2026-04-30 20:59 | 44.56985 | 26.09448 | 323 ft | 8 kts | 264° |
| 2026-04-30 21:00 | 44.56960 | 26.09394 | 323 ft | 4 kts | 183° |
| 2026-04-30 21:00 | 44.56931 | 26.09398 | 323 ft | 0 kts | 174° |